createdAt,value
2022-12-03T00:01:34.310Z,37.00
2022-12-03T00:04:21.001Z,32.40
2022-12-03T00:07:07.896Z,30.60
2022-12-03T00:09:54.753Z,32.10
2022-12-03T00:12:41.250Z,22.80
2022-12-03T00:15:28.207Z,30.70
2022-12-03T00:18:14.850Z,38.00
2022-12-03T00:21:01.475Z,31.70
2022-12-03T00:23:48.029Z,26.50
2022-12-03T00:26:35.075Z,27.10
2022-12-03T00:29:21.480Z,30.30
2022-12-03T00:32:08.197Z,24.60
2022-12-03T00:34:54.850Z,25.90
2022-12-03T00:37:41.502Z,30.40
2022-12-03T00:40:28.105Z,20.00
2022-12-03T00:43:14.815Z,31.30
2022-12-03T00:46:01.522Z,30.80
2022-12-03T00:48:48.357Z,26.20
2022-12-03T00:51:36.022Z,26.20
2022-12-03T00:54:28.346Z,32.10
2022-12-03T00:57:17.956Z,23.10
2022-12-03T01:00:07.966Z,26.30
2022-12-03T01:02:54.435Z,31.50
2022-12-03T01:05:40.766Z,33.90
2022-12-03T01:08:27.372Z,28.90
2022-12-03T01:11:32.611Z,39.40
2022-12-03T01:14:19.748Z,28.30
2022-12-03T01:17:07.054Z,27.30
2022-12-03T01:19:53.763Z,37.80
2022-12-03T01:22:40.573Z,33.60
2022-12-03T01:25:27.588Z,32.80
2022-12-03T01:28:14.197Z,31.50
2022-12-03T01:31:19.386Z,37.10
2022-12-03T01:34:06.462Z,24.20
2022-12-03T01:36:53.471Z,31.30
2022-12-03T01:39:40.483Z,33.40
2022-12-03T01:42:29.318Z,27.10
2022-12-03T01:45:22.084Z,27.50
2022-12-03T01:48:10.029Z,33.00
2022-12-03T01:50:56.737Z,32.00
2022-12-03T01:53:43.649Z,33.90
2022-12-03T01:56:30.401Z,33.70
2022-12-03T01:59:21.571Z,33.60
2022-12-03T02:05:01.337Z,35.10
2022-12-03T02:07:48.327Z,18.40
2022-12-03T02:10:35.676Z,33.00
2022-12-03T02:13:21.973Z,33.00
2022-12-03T02:16:08.847Z,30.60
2022-12-03T02:18:55.111Z,35.30
2022-12-03T02:21:47.933Z,35.70
2022-12-03T02:25:03.812Z,29.70
2022-12-03T02:27:50.738Z,24.80
2022-12-03T02:30:37.323Z,33.50
2022-12-03T02:33:23.790Z,33.50
2022-12-03T02:36:10.453Z,32.90
2022-12-03T02:38:57.274Z,34.10
2022-12-03T02:42:02.714Z,34.00
2022-12-03T02:44:49.518Z,35.10
2022-12-03T02:47:40.020Z,31.00
2022-12-03T02:50:29.157Z,30.80
2022-12-03T02:53:19.645Z,23.50
2022-12-03T02:56:06.611Z,35.60
2022-12-03T02:58:54.678Z,29.80
2022-12-03T03:01:41.322Z,23.40
2022-12-03T03:04:27.746Z,31.50
2022-12-03T03:07:14.453Z,32.70
2022-12-03T03:10:00.911Z,33.70
2022-12-03T03:12:47.474Z,40.10
2022-12-03T03:15:35.832Z,26.60
2022-12-03T03:18:22.615Z,25.60
2022-12-03T03:21:09.131Z,32.10
2022-12-03T03:23:56.029Z,31.60
2022-12-03T03:26:42.946Z,32.00
2022-12-03T03:29:30.775Z,37.40
2022-12-03T03:32:17.371Z,36.10
2022-12-03T03:35:05.356Z,34.60
2022-12-03T03:37:53.668Z,29.80
2022-12-03T03:40:40.382Z,32.20
2022-12-03T03:43:26.985Z,36.50
2022-12-03T03:46:13.697Z,26.20
2022-12-03T03:49:01.295Z,35.20
2022-12-03T03:51:48.338Z,29.60
2022-12-03T03:54:35.146Z,27.80
2022-12-03T03:57:21.752Z,29.10
2022-12-03T04:00:08.972Z,29.70
2022-12-03T04:02:55.680Z,28.70
2022-12-03T04:05:42.298Z,39.60
2022-12-03T04:08:29.175Z,30.20
2022-12-03T04:11:34.505Z,30.00
2022-12-03T04:14:21.457Z,24.10
2022-12-03T04:17:07.952Z,30.80
2022-12-03T04:19:54.663Z,28.20
2022-12-03T04:22:41.171Z,30.90
2022-12-03T04:25:46.313Z,31.00
2022-12-03T04:28:51.350Z,27.10
2022-12-03T04:31:57.326Z,40.10
2022-12-03T04:35:03.108Z,32.10
2022-12-03T04:37:49.815Z,27.30
2022-12-03T04:40:56.242Z,31.80
2022-12-03T04:44:02.489Z,31.10
2022-12-03T04:46:48.919Z,32.50
2022-12-03T04:49:37.081Z,32.30
2022-12-03T04:52:23.453Z,32.10
2022-12-03T04:55:10.161Z,20.70
2022-12-03T04:57:57.075Z,31.20
2022-12-03T05:00:43.683Z,33.70
2022-12-03T05:03:30.389Z,36.50
2022-12-03T05:06:17.194Z,38.40
2022-12-03T05:09:03.910Z,29.90
2022-12-03T05:11:50.713Z,36.20
2022-12-03T05:14:37.451Z,35.90
2022-12-03T05:17:24.338Z,32.30
2022-12-03T05:20:31.013Z,37.50
2022-12-03T05:23:17.322Z,33.20
2022-12-03T05:26:04.022Z,24.10
2022-12-03T05:28:50.420Z,13.50
2022-12-03T05:31:36.824Z,39.10
2022-12-03T05:34:23.429Z,35.80
2022-12-03T05:37:10.032Z,38.70
2022-12-03T05:39:56.745Z,30.30
2022-12-03T05:42:57.035Z,40.60
2022-12-03T05:45:44.705Z,40.90
2022-12-03T05:48:31.202Z,36.80
2022-12-03T05:51:18.118Z,41.60
2022-12-03T05:54:04.828Z,28.80
2022-12-03T05:56:51.119Z,25.10
2022-12-03T05:59:37.829Z,38.50
2022-12-03T06:02:24.553Z,34.50
2022-12-03T06:05:12.169Z,34.10
2022-12-03T06:07:58.947Z,39.20
2022-12-03T06:10:45.821Z,33.10
2022-12-03T06:13:32.755Z,41.70
2022-12-03T06:16:19.612Z,37.10
2022-12-03T06:19:06.120Z,43.30
2022-12-03T06:21:53.012Z,31.60
2022-12-03T06:24:39.867Z,40.20
2022-12-03T06:27:26.594Z,35.60
2022-12-03T06:30:14.947Z,34.00
2022-12-03T06:33:02.122Z,38.00
2022-12-03T06:35:49.036Z,31.80
2022-12-03T06:38:35.548Z,41.70
2022-12-03T06:41:24.594Z,38.70
2022-12-03T06:44:11.553Z,31.90
2022-12-03T06:46:58.047Z,36.40
2022-12-03T06:49:44.742Z,38.40
2022-12-03T06:52:31.713Z,32.40
2022-12-03T06:55:20.478Z,36.40
2022-12-03T06:58:07.396Z,38.90
2022-12-03T07:00:54.229Z,36.50
2022-12-03T07:03:40.993Z,32.20
2022-12-03T07:06:27.593Z,33.10
2022-12-03T07:09:17.046Z,31.60
2022-12-03T07:12:06.274Z,32.00
2022-12-03T07:14:53.368Z,28.90
2022-12-03T07:17:39.978Z,39.80
2022-12-03T07:20:26.993Z,42.80
2022-12-03T07:23:13.783Z,36.90
2022-12-03T07:26:00.634Z,29.10
2022-12-03T07:28:48.368Z,39.30
2022-12-03T07:31:35.214Z,37.80
2022-12-03T07:34:21.782Z,29.00
2022-12-03T07:37:08.492Z,35.60
2022-12-03T07:39:55.615Z,31.70
2022-12-03T07:42:42.523Z,33.50
2022-12-03T07:45:29.436Z,21.40
2022-12-03T07:48:16.454Z,42.70
2022-12-03T07:51:03.414Z,36.50
2022-12-03T07:53:50.075Z,31.90
2022-12-03T07:56:36.865Z,32.70
2022-12-03T07:59:23.745Z,40.90
2022-12-03T08:02:10.173Z,37.80
2022-12-03T08:04:57.102Z,36.10
2022-12-03T08:07:43.653Z,38.70
2022-12-03T08:10:30.599Z,33.90
2022-12-03T08:13:18.076Z,37.00
2022-12-03T08:16:12.592Z,40.90
2022-12-03T08:18:59.152Z,41.50
2022-12-03T08:21:45.889Z,29.70
2022-12-03T08:24:32.642Z,35.20
2022-12-03T08:27:19.615Z,25.20
2022-12-03T08:30:15.031Z,36.30
2022-12-03T08:33:02.012Z,34.90
2022-12-03T08:35:50.237Z,34.10
2022-12-03T08:38:36.866Z,29.40
2022-12-03T08:41:42.311Z,26.80
2022-12-03T08:44:32.725Z,34.80
2022-12-03T08:47:20.541Z,48.00
2022-12-03T08:50:25.195Z,39.40
2022-12-03T08:53:30.510Z,36.30
2022-12-03T08:56:24.594Z,31.10
2022-12-03T08:59:29.400Z,42.90
2022-12-03T09:02:30.874Z,33.60
2022-12-03T09:05:27.419Z,24.40
2022-12-03T09:08:14.016Z,46.60
2022-12-03T09:11:01.448Z,43.60
2022-12-03T09:13:49.605Z,42.20
2022-12-03T09:16:36.148Z,41.90
2022-12-03T09:19:26.507Z,42.70
2022-12-03T09:22:13.502Z,41.60
2022-12-03T09:25:00.300Z,43.60
2022-12-03T09:27:47.124Z,19.20
2022-12-03T09:30:34.136Z,40.10
2022-12-03T09:33:21.061Z,41.90
2022-12-03T09:36:07.576Z,36.20
2022-12-03T09:38:57.864Z,34.30
2022-12-03T09:41:44.557Z,32.40
2022-12-03T09:44:32.678Z,44.00
2022-12-03T09:47:19.121Z,38.00
2022-12-03T09:50:06.335Z,39.90
2022-12-03T09:52:54.939Z,41.70
2022-12-03T09:55:42.578Z,37.20
2022-12-03T09:58:34.573Z,26.70
2022-12-03T10:01:21.532Z,29.30
2022-12-03T10:04:08.234Z,38.90
2022-12-03T10:06:54.788Z,38.70
2022-12-03T10:09:41.176Z,43.40
2022-12-03T10:12:27.976Z,34.40
2022-12-03T10:15:15.943Z,44.80
2022-12-03T10:18:20.136Z,28.40
2022-12-03T10:21:13.698Z,33.20
2022-12-03T10:24:28.991Z,35.20
2022-12-03T10:27:25.282Z,39.60
2022-12-03T10:30:18.425Z,40.10
2022-12-03T10:33:18.501Z,27.80
2022-12-03T10:36:23.304Z,49.20
2022-12-03T10:39:12.693Z,41.60
2022-12-03T10:42:13.507Z,45.60
2022-12-03T10:45:14.600Z,17.90
2022-12-03T10:48:05.157Z,39.40
2022-12-03T10:50:53.647Z,32.40
2022-12-03T10:53:40.109Z,39.50
2022-12-03T10:56:26.561Z,47.60
2022-12-03T10:59:26.292Z,49.50
2022-12-03T11:02:22.920Z,27.20
2022-12-03T11:05:15.467Z,45.40
2022-12-03T11:08:02.002Z,44.90
2022-12-03T11:10:59.095Z,35.10
2022-12-03T11:13:54.121Z,41.30
2022-12-03T11:16:40.493Z,8.50
2022-12-03T11:19:36.114Z,26.90
2022-12-03T11:22:24.495Z,44.50
2022-12-03T11:25:37.370Z,41.90
2022-12-03T11:28:31.423Z,40.00
2022-12-03T11:31:43.711Z,43.80
2022-12-03T11:34:39.260Z,49.70
2022-12-03T11:37:25.831Z,44.20
2022-12-03T11:40:18.904Z,41.90
2022-12-03T11:43:23.226Z,43.30
2022-12-03T11:46:12.300Z,40.50
2022-12-03T11:48:59.967Z,45.00
2022-12-03T11:51:46.833Z,40.40
2022-12-03T11:54:33.958Z,33.00
2022-12-03T11:57:37.944Z,36.60
2022-12-03T12:00:25.163Z,46.70
2022-12-03T12:03:21.460Z,42.80
2022-12-03T12:06:08.821Z,45.30
2022-12-03T12:08:57.131Z,48.80
2022-12-03T12:11:44.002Z,20.60
2022-12-03T12:14:30.374Z,38.60
2022-12-03T12:17:30.712Z,35.90
2022-12-03T12:20:26.761Z,44.90
2022-12-03T12:23:23.372Z,50.20
2022-12-03T12:26:09.774Z,47.30
2022-12-03T12:28:56.769Z,19.10
2022-12-03T12:31:43.246Z,36.10
2022-12-03T12:34:29.699Z,51.50
2022-12-03T12:37:35.645Z,47.70
2022-12-03T12:40:27.315Z,51.20
2022-12-03T12:43:24.857Z,48.40
2022-12-03T12:46:46.142Z,46.50
2022-12-03T12:49:25.148Z,44.00
2022-12-03T12:52:14.556Z,48.10
2022-12-03T12:55:04.857Z,58.50
2022-12-03T12:57:52.234Z,43.10
2022-12-03T13:00:38.739Z,48.30
2022-12-03T13:03:28.360Z,28.60
2022-12-03T13:06:15.389Z,45.00
2022-12-03T13:09:01.790Z,41.30
2022-12-03T13:12:04.206Z,44.60
2022-12-03T13:14:52.305Z,42.90
2022-12-03T13:17:39.071Z,45.70
2022-12-03T13:20:25.573Z,35.30
2022-12-03T13:23:33.312Z,54.40
2022-12-03T13:26:38.804Z,46.50
2022-12-03T13:29:26.960Z,41.70
2022-12-03T13:32:16.236Z,44.30
2022-12-03T13:35:31.946Z,53.30
2022-12-03T13:38:18.356Z,48.20
2022-12-03T13:41:05.104Z,46.00
2022-12-03T13:43:51.782Z,46.20
2022-12-03T13:46:38.195Z,37.80
2022-12-03T13:49:25.114Z,40.70
2022-12-03T13:52:16.879Z,44.90
2022-12-03T13:55:03.915Z,47.00
2022-12-03T13:57:50.253Z,47.20
2022-12-03T14:00:37.687Z,41.10
2022-12-03T14:03:24.357Z,46.40
2022-12-03T14:06:10.755Z,59.30
2022-12-03T14:08:58.051Z,53.00
2022-12-03T14:12:03.298Z,49.60
2022-12-03T14:14:50.086Z,45.50
2022-12-03T14:17:36.521Z,50.50
2022-12-03T14:20:22.936Z,45.50
2022-12-03T14:23:09.329Z,37.60
2022-12-03T14:25:56.232Z,45.80
2022-12-03T14:28:43.688Z,48.80
2022-12-03T14:31:30.415Z,50.30
2022-12-03T14:34:17.050Z,46.90
2022-12-03T14:37:03.675Z,38.80
2022-12-03T14:39:50.402Z,45.70
2022-12-03T14:42:37.140Z,48.80
2022-12-03T14:45:25.244Z,44.60
2022-12-03T14:48:11.821Z,49.70
2022-12-03T14:50:58.146Z,45.20
2022-12-03T14:53:44.964Z,49.10
2022-12-03T14:56:31.427Z,43.30
2022-12-03T14:59:20.691Z,50.10
2022-12-03T15:02:11.618Z,50.60
2022-12-03T15:04:58.558Z,49.90
2022-12-03T15:07:45.020Z,40.80
2022-12-03T15:10:31.856Z,44.80
2022-12-03T15:13:18.738Z,45.60
2022-12-03T15:16:05.685Z,48.70
2022-12-03T15:18:52.981Z,44.60
2022-12-03T15:21:39.640Z,48.40
2022-12-03T15:24:26.359Z,45.60
2022-12-03T15:27:13.207Z,51.60
2022-12-03T15:29:59.774Z,50.90
2022-12-03T15:32:46.694Z,51.10
2022-12-03T15:35:33.948Z,48.40
2022-12-03T15:38:20.875Z,38.30
2022-12-03T15:41:28.120Z,44.10
2022-12-03T15:44:14.955Z,41.80
2022-12-03T15:47:01.790Z,45.00
2022-12-03T15:49:48.922Z,47.10
2022-12-03T15:52:35.815Z,44.80
2022-12-03T15:55:22.663Z,45.60
2022-12-03T15:58:09.267Z,47.90
2022-12-03T16:00:55.776Z,47.80
2022-12-03T16:03:42.639Z,45.40
2022-12-03T16:06:29.242Z,46.40
2022-12-03T16:09:15.655Z,47.30
2022-12-03T16:12:02.097Z,38.10
2022-12-03T16:14:48.615Z,49.40
2022-12-03T16:17:35.060Z,46.10
2022-12-03T16:20:23.806Z,48.70
2022-12-03T16:23:10.398Z,38.60
2022-12-03T16:25:57.073Z,46.80
2022-12-03T16:28:44.367Z,46.60
2022-12-03T16:31:31.269Z,47.10
2022-12-03T16:34:18.365Z,42.10
2022-12-03T16:37:08.828Z,44.70
2022-12-03T16:39:56.011Z,43.60
2022-12-03T16:42:43.151Z,47.10
2022-12-03T16:45:29.355Z,51.00
2022-12-03T16:48:16.377Z,49.70
2022-12-03T16:51:02.628Z,53.30
2022-12-03T16:53:49.424Z,50.70
2022-12-03T16:56:36.142Z,49.90
2022-12-03T16:59:22.808Z,53.00
2022-12-03T17:02:11.042Z,40.80
2022-12-03T17:04:57.729Z,49.90
2022-12-03T17:07:44.658Z,52.30
2022-12-03T17:10:31.284Z,45.60
2022-12-03T17:13:18.160Z,50.30
2022-12-03T17:16:05.330Z,46.60
2022-12-03T17:19:00.977Z,50.20
2022-12-03T17:21:47.581Z,56.00
2022-12-03T17:24:34.104Z,54.60
2022-12-03T17:27:23.436Z,55.70
2022-12-03T17:30:10.928Z,54.30
2022-12-03T17:32:57.464Z,51.00
2022-12-03T17:35:45.607Z,48.20
2022-12-03T17:38:37.280Z,61.60
2022-12-03T17:41:26.623Z,53.90
2022-12-03T17:44:17.765Z,53.10
2022-12-03T17:47:06.381Z,54.90
2022-12-03T17:49:53.498Z,42.20
2022-12-03T17:52:40.295Z,57.40
2022-12-03T17:55:36.972Z,58.30
2022-12-03T17:58:28.682Z,53.20
2022-12-03T18:01:15.005Z,53.60
2022-12-03T18:04:01.821Z,50.50
2022-12-03T18:06:48.380Z,50.70
2022-12-03T18:09:35.144Z,53.90
2022-12-03T18:12:21.644Z,54.00
2022-12-03T18:15:08.937Z,61.40
2022-12-03T18:17:55.699Z,58.50
2022-12-03T18:20:42.110Z,61.50
2022-12-03T18:23:29.039Z,64.10
2022-12-03T18:26:16.059Z,50.50
2022-12-03T18:29:02.674Z,58.00
2022-12-03T18:31:49.287Z,59.10
2022-12-03T18:34:35.875Z,45.30
2022-12-03T18:37:22.508Z,52.90
2022-12-03T18:40:21.449Z,55.40
2022-12-03T18:43:14.840Z,56.50
2022-12-03T18:46:01.960Z,56.10
2022-12-03T18:48:48.971Z,63.70
2022-12-03T18:51:35.536Z,59.70
2022-12-03T18:54:22.104Z,56.20
2022-12-03T18:57:09.038Z,55.70
2022-12-03T18:59:56.053Z,65.50
2022-12-03T19:03:02.441Z,57.10
2022-12-03T19:05:49.750Z,58.80
2022-12-03T19:08:36.723Z,58.30
2022-12-03T19:11:23.137Z,63.20
2022-12-03T19:14:11.485Z,58.80
2022-12-03T19:16:57.868Z,55.60
2022-12-03T19:19:44.256Z,63.70
2022-12-03T19:22:30.851Z,54.90
2022-12-03T19:25:17.750Z,66.40
2022-12-03T19:28:04.789Z,64.10
2022-12-03T19:30:58.903Z,66.50
2022-12-03T19:33:46.394Z,64.90
2022-12-03T19:36:35.419Z,60.80
2022-12-03T19:39:22.303Z,68.20
2022-12-03T19:42:08.913Z,61.00
2022-12-03T19:44:55.665Z,61.90
2022-12-03T19:47:42.386Z,61.80
2022-12-03T19:50:30.634Z,65.30
2022-12-03T19:53:17.394Z,69.80
2022-12-03T19:56:08.685Z,65.00
2022-12-03T19:58:55.735Z,68.20
2022-12-03T20:01:43.397Z,64.00
2022-12-03T20:04:33.526Z,68.70
2022-12-03T20:07:20.099Z,71.00
2022-12-03T20:10:07.455Z,71.30
2022-12-03T20:12:54.080Z,68.10
2022-12-03T20:15:40.346Z,68.00
2022-12-03T20:18:26.867Z,40.50
2022-12-03T20:21:14.310Z,66.60
2022-12-03T20:24:01.024Z,74.00
2022-12-03T20:26:47.695Z,66.80
2022-12-03T20:29:34.101Z,62.90
2022-12-03T20:32:21.169Z,71.20
2022-12-03T20:35:08.379Z,64.40
2022-12-03T20:37:54.903Z,59.20
2022-12-03T20:40:41.689Z,60.10
2022-12-03T20:43:28.659Z,53.60
2022-12-03T20:46:21.716Z,69.10
2022-12-03T20:49:08.578Z,54.60
2022-12-03T20:51:57.067Z,32.30
2022-12-03T20:54:46.606Z,67.80
2022-12-03T20:57:33.135Z,69.30
2022-12-03T21:00:23.243Z,55.70
2022-12-03T21:03:10.025Z,60.40
2022-12-03T21:06:01.665Z,61.40
2022-12-03T21:11:36.048Z,55.60
2022-12-03T21:14:22.680Z,63.40
2022-12-03T21:17:09.698Z,64.60
2022-12-03T21:19:56.919Z,54.80
2022-12-03T21:22:43.931Z,51.70
2022-12-03T21:25:30.411Z,57.00
2022-12-03T21:28:17.297Z,63.00
2022-12-03T21:31:05.935Z,53.60
2022-12-03T21:33:55.522Z,59.70
2022-12-03T21:36:42.336Z,24.90
2022-12-03T21:39:29.015Z,57.50
2022-12-03T21:42:33.287Z,38.60
2022-12-03T21:45:25.042Z,35.10
2022-12-03T21:48:11.507Z,47.30
2022-12-03T21:51:03.741Z,50.20
2022-12-03T21:53:50.872Z,63.80
2022-12-03T21:56:37.572Z,62.40
2022-12-03T21:59:25.886Z,49.50
2022-12-03T22:02:12.757Z,62.30
2022-12-03T22:05:00.060Z,67.70
2022-12-03T22:07:47.071Z,42.20
2022-12-03T22:10:34.785Z,58.20
2022-12-03T22:13:21.389Z,58.80
2022-12-03T22:16:09.929Z,56.50
2022-12-03T22:18:56.808Z,62.60
2022-12-03T22:21:43.659Z,45.30
2022-12-03T22:24:30.668Z,60.90
2022-12-03T22:27:17.237Z,62.00
2022-12-03T22:30:04.667Z,52.70
2022-12-03T22:32:53.237Z,50.40
2022-12-03T22:35:40.377Z,63.00
2022-12-03T22:38:27.017Z,58.70
2022-12-03T22:41:14.208Z,61.50
2022-12-03T22:44:00.967Z,56.30
2022-12-03T22:46:47.723Z,52.90
2022-12-03T22:49:34.536Z,67.50
2022-12-03T22:52:21.572Z,65.30
2022-12-03T22:55:09.083Z,63.60
2022-12-03T22:57:55.536Z,63.80
2022-12-03T23:00:42.263Z,62.30
2022-12-03T23:03:29.031Z,60.10
2022-12-03T23:06:15.404Z,62.50
2022-12-03T23:09:02.503Z,60.80
2022-12-03T23:11:49.070Z,57.60
2022-12-03T23:14:36.903Z,44.20
2022-12-03T23:17:26.635Z,62.10
2022-12-03T23:20:13.899Z,68.70
2022-12-03T23:23:00.346Z,62.70
2022-12-03T23:26:00.279Z,43.30
2022-12-03T23:28:47.397Z,64.50
2022-12-03T23:31:34.013Z,62.90
2022-12-03T23:34:20.938Z,60.60
2022-12-03T23:37:10.291Z,47.50
2022-12-03T23:39:57.110Z,64.50
2022-12-03T23:42:43.702Z,64.40
2022-12-03T23:45:33.413Z,63.10
2022-12-03T23:48:19.845Z,69.10
2022-12-03T23:51:10.775Z,72.10
2022-12-03T23:53:57.401Z,65.80
2022-12-03T23:56:44.879Z,67.40
2022-12-03T23:59:31.681Z,44.10
